Time;durP1;ratioP1;P1;durP2;ratioP2;P2;SDS_P1;SDS_P2;PMS_P1;PMS_P2;Temp;Humidity;BMP_temperature;BMP_pressure;BME280_temperature;BME280_humidity;BME280_pressure;Samples;Min_cycle;Max_cycle;Signal;HPM_P1;HPM_P2
2022/05/12 00:02:09;;;;;;;6.28;3.20;;;;;;;16.79;62.78;98670.25;6257625;22;20149;-57
2022/05/12 00:04:38;;;;;;;3.00;2.80;;;;;;;16.83;62.60;98676.88;6264697;22;20610;-57
2022/05/12 00:07:04;;;;;;;3.03;2.80;;;;;;;16.81;62.64;98667.53;6269724;22;20637;-57
2022/05/12 00:09:30;;;;;;;4.57;2.75;;;;;;;16.76;62.65;98667.09;6269885;22;20215;-57
2022/05/12 00:11:56;;;;;;;3.83;2.85;;;;;;;16.74;62.89;98675.06;6269632;22;20254;-57
2022/05/12 00:14:22;;;;;;;5.53;3.63;;;;;;;16.66;63.48;98680.16;6269540;22;21040;-57
2022/05/12 00:16:47;;;;;;;5.13;3.28;;;;;;;16.64;63.25;98673.44;6267464;22;20196;-57
2022/05/12 00:19:13;;;;;;;4.65;3.03;;;;;;;16.60;63.44;98666.81;6265059;22;20675;-57
2022/05/12 00:21:38;;;;;;;5.82;3.28;;;;;;;16.47;63.97;98668.88;6255846;22;20208;-57
2022/05/12 00:24:04;;;;;;;5.88;3.25;;;;;;;16.45;64.18;98673.41;6258261;22;20149;-57
2022/05/12 00:26:34;;;;;;;3.28;2.97;;;;;;;16.42;64.38;98673.66;6268241;22;20144;-57
2022/05/12 00:29:01;;;;;;;4.43;2.85;;;;;;;16.31;64.82;98664.13;6269730;22;20249;-56
2022/05/12 00:31:28;;;;;;;4.57;2.85;;;;;;;16.21;65.42;98683.34;6267810;22;20152;-57
2022/05/12 00:33:54;;;;;;;4.43;2.97;;;;;;;16.19;65.42;98669.59;6269448;22;20233;-57
2022/05/12 00:36:20;;;;;;;4.90;3.10;;;;;;;16.18;65.39;98660.94;6269587;22;20545;-57
2022/05/12 00:38:45;;;;;;;7.35;3.08;;;;;;;16.16;65.49;98662.84;6269484;22;20278;-56
2022/05/12 00:41:11;;;;;;;5.10;3.22;;;;;;;16.17;65.50;98668.91;6259309;22;20218;-57
2022/05/12 00:43:39;;;;;;;11.27;3.70;;;;;;;16.08;65.83;98680.13;6256861;22;20232;-57
2022/05/12 00:46:33;;;;;;;4.57;3.28;;;;;;;16.09;65.59;98668.75;6262199;22;20677;-57
2022/05/12 00:49:25;;;;;;;4.63;3.17;;;;;;;16.05;66.11;98664.75;6267738;22;20151;-57
2022/05/12 00:52:13;;;;;;;3.75;3.13;;;;;;;16.05;66.27;98662.16;6269504;22;20274;-57
2022/05/12 00:54:45;;;;;;;3.55;2.97;;;;;;;16.03;66.56;98664.06;6269273;22;20168;-56
2022/05/12 00:57:15;;;;;;;3.28;2.97;;;;;;;16.04;66.54;98663.91;6269453;22;20147;-56
2022/05/12 00:59:41;;;;;;;3.17;2.97;;;;;;;16.06;66.45;98667.25;6268647;22;20149;-57
2022/05/12 01:02:17;;;;;;;5.22;3.17;;;;;;;16.06;66.47;98656.78;6259720;22;20625;-57
2022/05/12 01:04:45;;;;;;;3.33;3.03;;;;;;;16.07;66.21;98668.03;6255008;22;20148;-57
2022/05/12 01:07:11;;;;;;;4.18;3.13;;;;;;;16.03;66.55;98658.84;6262120;22;20148;-57
2022/05/12 01:09:37;;;;;;;3.53;3.10;;;;;;;16.02;66.22;98663.22;6269149;22;20154;-57
2022/05/12 01:12:03;;;;;;;5.03;3.17;;;;;;;15.99;66.65;98660.06;6269338;22;20526;-57
2022/05/12 01:14:28;;;;;;;3.60;2.90;;;;;;;15.94;67.14;98662.25;6269239;22;20245;-56
2022/05/12 01:16:57;;;;;;;2.80;2.60;;;;;;;16.01;66.95;98671.19;6268961;22;20188;-56
2022/05/12 01:19:26;;;;;;;3.28;3.08;;;;;;;16.00;66.77;98666.94;6269325;22;20179;-57
2022/05/12 01:21:53;;;;;;;4.10;2.72;;;;;;;16.03;66.70;98672.72;6267598;22;20152;-57
2022/05/12 01:24:21;;;;;;;4.25;3.20;;;;;;;16.01;66.98;98673.81;6255035;22;20500;-57
2022/05/12 01:26:47;;;;;;;7.07;3.63;;;;;;;15.92;67.22;98674.59;6258667;22;20233;-57
2022/05/12 01:29:13;;;;;;;3.97;3.65;;;;;;;15.95;67.93;98679.53;6267572;22;20148;-56
2022/05/12 01:31:39;;;;;;;5.68;2.90;;;;;;;15.97;67.57;98677.66;6271339;22;20159;-57
2022/05/12 01:34:07;;;;;;;3.53;3.33;;;;;;;16.06;67.08;98688.13;6271229;22;20175;-57
2022/05/12 01:36:33;;;;;;;3.33;3.08;;;;;;;16.02;67.05;98686.72;6271504;22;20148;-57
2022/05/12 01:38:59;;;;;;;3.10;2.90;;;;;;;15.94;67.34;98685.72;6271245;22;20155;-57
2022/05/12 01:41:25;;;;;;;6.63;3.28;;;;;;;16.03;67.08;98682.34;6271246;22;20148;-57
2022/05/12 01:43:50;;;;;;;3.83;3.50;;;;;;;16.01;66.90;98685.06;6263949;22;20366;-57
2022/05/12 01:46:16;;;;;;;4.68;3.15;;;;;;;16.03;66.89;98687.56;6258428;22;20148;-57
2022/05/12 01:48:42;;;;;;;3.20;2.92;;;;;;;15.93;67.08;98687.50;6261240;22;20465;-57
2022/05/12 01:51:08;;;;;;;3.88;3.45;;;;;;;15.92;67.35;98691.06;6271012;22;20602;-57
2022/05/12 01:53:34;;;;;;;3.65;2.78;;;;;;;15.84;67.62;98687.47;6270949;22;20737;-57
2022/05/12 01:55:59;;;;;;;4.60;3.20;;;;;;;15.81;68.04;98687.75;6271094;22;20299;-57
2022/05/12 01:58:26;;;;;;;3.72;3.40;;;;;;;15.86;67.97;98691.59;6271005;22;20149;-57
2022/05/12 02:00:51;;;;;;;3.38;3.08;;;;;;;15.72;68.36;98685.91;6271437;22;20581;-57
2022/05/12 02:03:17;;;;;;;3.35;2.65;;;;;;;15.80;68.06;98691.31;6271006;22;20180;-57
2022/05/12 02:05:44;;;;;;;3.50;3.20;;;;;;;15.77;68.19;98695.00;6259356;22;20171;-57
2022/05/12 02:08:12;;;;;;;3.55;2.90;;;;;;;15.64;68.75;98693.56;6258531;22;20672;-57
2022/05/12 02:10:40;;;;;;;3.50;3.20;;;;;;;15.66;68.64;98699.47;6264355;22;20179;-57
2022/05/12 02:13:08;;;;;;;6.13;3.42;;;;;;;15.78;68.11;98704.47;6271265;22;20148;-57
2022/05/12 02:15:34;;;;;;;3.35;3.15;;;;;;;15.62;68.73;98698.91;6270736;22;20174;-57
2022/05/12 02:17:59;;;;;;;3.30;3.10;;;;;;;15.60;68.89;98699.97;6270685;22;20209;-57
2022/05/12 02:20:25;;;;;;;3.38;3.08;;;;;;;15.61;68.84;98704.25;6270916;22;20156;-57
2022/05/12 02:22:50;;;;;;;3.50;3.20;;;;;;;15.66;68.98;98704.69;6271229;22;20159;-57
2022/05/12 02:25:17;;;;;;;4.95;3.30;;;;;;;15.67;70.91;98706.31;6267796;22;20148;-57
2022/05/12 02:27:45;;;;;;;3.78;3.40;;;;;;;15.61;71.41;98715.50;6257129;22;20224;-57
2022/05/12 02:30:14;;;;;;;4.07;2.90;;;;;;;15.65;69.56;98718.69;6259322;22;20260;-57
2022/05/12 02:32:39;;;;;;;4.65;3.03;;;;;;;15.69;68.92;98714.88;6269165;22;20225;-57
2022/05/12 02:35:05;;;;;;;6.38;3.42;;;;;;;15.66;69.11;98712.50;6270660;22;20629;-57
2022/05/12 02:37:32;;;;;;;3.20;3.00;;;;;;;15.72;68.76;98718.03;6270010;22;20144;-57
2022/05/12 02:39:57;;;;;;;4.55;3.53;;;;;;;15.71;68.25;98724.22;6270683;22;20236;-57
2022/05/12 02:42:23;;;;;;;2.90;2.70;;;;;;;15.66;68.25;98728.16;6269999;22;20177;-57
2022/05/12 02:44:48;;;;;;;4.43;3.15;;;;;;;15.67;68.51;98727.19;6270711;22;20141;-57
2022/05/12 02:47:14;;;;;;;3.88;3.30;;;;;;;15.72;68.37;98727.66;6261683;22;20160;-57
2022/05/12 02:49:40;;;;;;;4.22;3.10;;;;;;;15.68;68.30;98726.28;6257815;22;20152;-57
2022/05/12 02:52:07;;;;;;;4.65;3.05;;;;;;;15.56;68.77;98729.91;6261624;22;20231;-57
2022/05/12 02:54:33;;;;;;;5.63;4.00;;;;;;;15.47;71.17;98736.72;6270636;22;20255;-57
2022/05/12 02:56:58;;;;;;;6.60;4.07;;;;;;;15.47;71.01;98741.94;6270416;22;20591;-57
2022/05/12 02:59:24;;;;;;;4.18;3.40;;;;;;;15.50;70.95;98738.22;6270498;22;20161;-57
2022/05/12 03:01:49;;;;;;;6.95;4.03;;;;;;;15.46;70.78;98740.25;6270548;22;20152;-57
2022/05/12 03:04:15;;;;;;;6.72;4.50;;;;;;;15.39;72.72;98740.91;6270544;22;20147;-57
2022/05/12 03:06:42;;;;;;;9.13;3.88;;;;;;;15.44;74.05;98749.16;6268678;22;20156;-57
2022/05/12 03:09:09;;;;;;;7.53;4.75;;;;;;;15.31;76.58;98748.50;6256998;22;20172;-57
2022/05/12 03:11:35;;;;;;;5.15;3.92;;;;;;;15.28;77.65;98749.56;6258474;22;20608;-57
2022/05/12 03:14:00;;;;;;;5.45;4.88;;;;;;;15.35;74.93;98749.94;6264551;22;21149;-57
2022/05/12 03:16:27;;;;;;;7.43;3.70;;;;;;;15.22;75.14;98752.66;6269888;22;20249;-57
2022/05/12 03:18:53;;;;;;;4.18;3.22;;;;;;;15.28;72.93;98746.16;6270395;22;20137;-57
2022/05/12 03:21:20;;;;;;;3.42;3.20;;;;;;;15.28;71.71;98752.16;6270272;22;20149;-57
2022/05/12 03:23:47;;;;;;;5.57;2.83;;;;;;;15.07;72.47;98753.09;6270473;22;20603;-57
2022/05/12 03:26:12;;;;;;;3.60;3.30;;;;;;;15.16;71.81;98753.19;6270274;22;20172;-57
2022/05/12 03:28:39;;;;;;;3.42;3.13;;;;;;;14.92;73.03;98749.16;6266349;22;20896;-57
2022/05/12 03:31:05;;;;;;;5.78;3.22;;;;;;;15.00;72.86;98755.38;6256429;22;20647;-57
2022/05/12 03:33:31;;;;;;;7.10;3.38;;;;;;;14.88;73.27;98753.75;6258434;22;20528;-57
2022/05/12 03:35:58;;;;;;;5.55;3.70;;;;;;;14.95;73.90;98761.91;6268458;22;20230;-57
2022/05/12 03:38:24;;;;;;;3.47;3.17;;;;;;;14.83;73.59;98761.13;6270194;22;20527;-57
2022/05/12 03:40:50;;;;;;;3.45;3.15;;;;;;;14.97;73.72;98760.00;6269807;22;20221;-56
2022/05/12 03:44:46;;;;;;;3.78;3.47;;;;;;;15.08;73.53;98763.41;6270389;22;20634;-57
2022/05/12 03:46:02;;;;;;;4.20;3.10;;;;;;;15.20;72.56;98759.81;6270035;22;20652;-57
2022/05/12 03:48:27;;;;;;;3.25;3.00;;;;;;;15.28;72.05;98759.19;6268858;22;20156;-57
2022/05/12 03:50:53;;;;;;;3.40;3.10;;;;;;;15.33;71.87;98764.88;6258914;22;20225;-57
2022/05/12 03:53:19;;;;;;;3.30;3.05;;;;;;;15.37;71.52;98753.22;6257468;22;20493;-57
2022/05/12 03:55:44;;;;;;;3.72;3.40;;;;;;;15.39;71.48;98764.38;6262834;22;20179;-57
2022/05/12 03:58:10;;;;;;;3.58;3.25;;;;;;;15.47;71.17;98767.16;6269842;22;20148;-57
2022/05/12 04:00:35;;;;;;;4.53;3.10;;;;;;;15.52;71.18;98767.63;6270016;22;20152;-57
2022/05/12 04:03:01;;;;;;;3.63;3.33;;;;;;;15.60;70.56;98762.59;6269688;22;20671;-56
2022/05/12 04:05:31;;;;;;;3.00;2.80;;;;;;;15.66;70.19;98759.47;6270006;22;20141;-57
2022/05/12 04:07:57;;;;;;;3.20;3.00;;;;;;;15.66;70.18;98762.06;6269806;22;20145;-57
2022/05/12 04:10:23;;;;;;;3.75;2.83;;;;;;;15.67;70.46;98763.72;6268371;22;20160;-57
2022/05/12 04:12:49;;;;;;;3.83;3.53;;;;;;;15.76;70.35;98770.78;6255924;22;20156;-57
2022/05/12 04:15:15;;;;;;;3.08;2.88;;;;;;;15.82;70.22;98773.72;6258099;22;20564;-57
2022/05/12 04:17:47;;;;;;;3.15;2.95;;;;;;;15.82;69.82;98767.66;6265578;22;20192;-57
2022/05/12 04:20:13;;;;;;;3.88;2.80;;;;;;;15.91;69.21;98779.97;6269908;22;20143;-57
2022/05/12 04:22:43;;;;;;;4.38;3.15;;;;;;;15.96;69.47;98767.31;6268467;22;20591;-57
2022/05/12 04:25:09;;;;;;;3.40;3.20;;;;;;;16.05;69.01;98775.22;6267405;22;20512;-57
2022/05/12 04:27:36;;;;;;;2.90;2.70;;;;;;;16.12;68.94;98776.34;6269344;22;20239;-57
2022/05/12 04:30:02;;;;;;;3.47;3.17;;;;;;;16.19;68.34;98774.03;6269736;22;20144;-57
2022/05/12 04:32:27;;;;;;;3.05;2.85;;;;;;;16.24;68.21;98785.75;6261871;22;20148;-57
2022/05/12 04:35:12;;;;;;;3.28;3.08;;;;;;;16.24;68.40;98784.91;6254708;22;20184;-57
2022/05/12 04:37:41;;;;;;;3.35;3.05;;;;;;;16.32;68.08;98779.88;6261112;22;20457;-57
2022/05/12 04:40:30;;;;;;;3.28;2.97;;;;;;;16.29;68.69;98790.56;6269477;22;20148;-58
2022/05/12 04:42:58;;;;;;;3.13;2.92;;;;;;;16.38;68.48;98787.19;6269971;22;20167;-57
2022/05/12 04:45:26;;;;;;;4.75;2.92;;;;;;;16.47;68.31;98791.63;6269490;22;20152;-57
2022/05/12 04:47:51;;;;;;;4.18;2.92;;;;;;;16.58;67.54;98791.53;6267938;22;20278;-58
2022/05/12 04:50:30;;;;;;;6.20;3.45;;;;;;;16.59;67.82;98798.41;6269584;22;20223;-57
2022/05/12 04:52:55;;;;;;;4.40;3.08;;;;;;;16.81;66.78;98795.59;6263334;22;20148;-57
2022/05/12 04:55:21;;;;;;;5.25;3.13;;;;;;;16.93;66.00;98799.75;6255959;22;20264;-57
2022/05/12 04:57:50;;;;;;;3.00;2.80;;;;;;;17.01;65.72;98799.88;6258233;22;20735;-57
2022/05/12 05:00:25;;;;;;;4.15;2.65;;;;;;;17.13;65.38;98811.91;6268230;22;20184;-57
2022/05/12 05:02:51;;;;;;;3.55;3.33;;;;;;;17.28;64.68;98805.28;6267718;22;20187;-57
2022/05/12 05:05:16;;;;;;;4.25;3.15;;;;;;;17.21;64.46;98812.03;6267734;22;20182;-56
2022/05/12 05:07:42;;;;;;;5.55;3.17;;;;;;;17.26;64.12;98813.25;6269405;22;20183;-56
2022/05/12 05:10:09;;;;;;;3.30;2.97;;;;;;;17.11;64.42;98811.19;6269706;22;20160;-56
2022/05/12 05:12:36;;;;;;;4.47;3.63;;;;;;;17.27;65.72;98814.09;6269302;22;20179;-56
2022/05/12 05:15:04;;;;;;;5.00;3.22;;;;;;;17.32;65.47;98814.53;6258359;22;20235;-56
2022/05/12 05:17:30;;;;;;;4.15;3.05;;;;;;;17.44;64.42;98803.78;6256358;22;20188;-56
2022/05/12 05:19:55;;;;;;;3.20;2.90;;;;;;;17.59;64.58;98809.44;6260620;22;20278;-56
2022/05/12 05:22:21;;;;;;;3.40;3.10;;;;;;;17.64;63.61;98810.69;6269255;22;20518;-55
2022/05/12 05:24:46;;;;;;;3.00;2.80;;;;;;;17.75;63.48;98809.69;6268836;22;20154;-56
2022/05/12 05:27:11;;;;;;;4.55;3.25;;;;;;;17.89;64.45;98812.72;6269580;22;20155;-56
2022/05/12 05:29:40;;;;;;;3.38;3.13;;;;;;;17.96;62.83;98813.78;6269292;22;20153;-56
2022/05/12 05:32:08;;;;;;;6.97;3.25;;;;;;;18.04;62.24;98813.09;6269029;22;20159;-56
2022/05/12 05:34:34;;;;;;;2.88;2.67;;;;;;;18.11;62.53;98822.88;6267895;22;20175;-56
2022/05/12 05:36:59;;;;;;;3.72;3.03;;;;;;;18.15;61.30;98815.53;6254882;22;20156;-56
2022/05/12 05:39:27;;;;;;;2.92;2.72;;;;;;;18.18;61.50;98818.69;6257654;22;20266;-56
2022/05/12 05:42:01;;;;;;;3.55;2.75;;;;;;;18.27;61.48;98819.63;6266167;22;20144;-56
2022/05/12 05:44:28;;;;;;;5.05;2.70;;;;;;;18.46;60.72;98809.13;6269178;22;20128;-56
2022/05/12 05:46:54;;;;;;;3.22;3.00;;;;;;;18.46;60.70;98817.81;6269390;22;20204;-56
2022/05/12 05:49:20;;;;;;;3.00;2.80;;;;;;;18.52;61.11;98811.16;6266220;22;20673;-56
2022/05/12 05:54:31;;;;;;;3.05;2.75;;;;;;;18.60;59.88;98812.09;6269205;22;20174;-56
2022/05/12 05:56:57;;;;;;;3.40;3.03;;;;;;;18.74;60.28;98816.03;6258924;22;20202;-56
2022/05/12 05:59:23;;;;;;;2.88;2.67;;;;;;;18.67;59.57;98812.34;6256483;22;20152;-56
2022/05/12 06:01:49;;;;;;;3.22;3.03;;;;;;;18.83;59.73;98809.91;6260672;22;20231;-56
2022/05/12 06:04:16;;;;;;;2.70;2.50;;;;;;;18.90;59.37;98813.59;6267314;22;20152;-56
2022/05/12 06:06:42;;;;;;;7.07;3.00;;;;;;;19.03;59.12;98816.69;6269185;22;20210;-56
2022/05/12 06:09:08;;;;;;;4.03;2.95;;;;;;;19.16;58.54;98811.88;6267601;22;20147;-56
2022/05/12 06:11:33;;;;;;;5.30;2.90;;;;;;;19.26;58.37;98810.06;6269063;22;20173;-57
2022/05/12 06:13:59;;;;;;;3.03;2.80;;;;;;;19.40;57.70;98813.00;6270982;22;20205;-56
2022/05/12 06:16:24;;;;;;;5.25;2.92;;;;;;;19.53;56.82;98805.56;6270988;22;20262;-56
2022/05/12 06:18:50;;;;;;;3.22;2.42;;;;;;;19.64;56.30;98804.50;6254607;22;20344;-56
2022/05/12 06:21:16;;;;;;;3.13;2.83;;;;;;;19.76;56.20;98805.91;6256990;22;20156;-57
2022/05/12 06:23:42;;;;;;;3.00;2.78;;;;;;;19.82;55.82;98815.81;6266460;22;20201;-57
2022/05/12 06:26:13;;;;;;;2.90;2.70;;;;;;;19.92;55.30;98813.91;6270948;22;20144;-57
2022/05/12 06:28:41;;;;;;;2.80;2.60;;;;;;;20.05;55.10;98814.34;6270880;22;20215;-57
2022/05/12 06:31:07;;;;;;;3.42;3.13;;;;;;;20.09;54.84;98815.69;6270922;22;20647;-56
2022/05/12 06:33:33;;;;;;;3.25;3.05;;;;;;;20.20;54.78;98812.81;6269241;22;20190;-57
2022/05/12 06:36:02;;;;;;;5.28;2.90;;;;;;;20.30;54.47;98821.41;6271108;22;20179;-57
2022/05/12 06:38:28;;;;;;;7.65;2.55;;;;;;;20.39;53.91;98817.88;6263824;22;20186;-57
2022/05/12 06:40:53;;;;;;;3.33;3.05;;;;;;;20.58;54.08;98830.78;6257362;22;20227;-57
2022/05/12 06:43:19;;;;;;;7.00;3.60;;;;;;;20.68;54.54;98828.84;6260158;22;20148;-57
2022/05/12 06:45:44;;;;;;;15.48;4.97;;;;;;;20.68;56.15;98832.28;6270241;22;20147;-57
2022/05/12 06:48:10;;;;;;;17.67;5.53;;;;;;;20.79;56.53;98818.03;6270707;22;20143;-57
2022/05/12 06:50:35;;;;;;;15.15;5.35;;;;;;;20.96;56.63;98822.38;6270697;22;20148;-57
2022/05/12 06:53:00;;;;;;;18.02;6.03;;;;;;;21.12;56.13;98825.06;6270709;22;20155;-57
2022/05/12 06:55:29;;;;;;;17.02;5.75;;;;;;;21.28;55.93;98827.75;6270545;22;20171;-57
2022/05/12 06:57:55;;;;;;;10.68;5.03;;;;;;;21.38;55.54;98826.59;6270308;22;20155;-57
2022/05/12 07:00:21;;;;;;;8.77;4.40;;;;;;;21.53;54.99;98824.16;6259125;22;20182;-57
2022/05/12 07:02:47;;;;;;;7.93;4.70;;;;;;;21.62;54.76;98820.56;6257532;22;20175;-57
2022/05/12 07:05:15;;;;;;;7.90;4.82;;;;;;;21.74;54.38;98827.97;6264004;22;20532;-57
2022/05/12 07:07:42;;;;;;;10.85;4.63;;;;;;;21.81;54.12;98831.63;6270817;22;20159;-57
2022/05/12 07:10:09;;;;;;;6.63;4.00;;;;;;;21.92;53.44;98830.44;6270588;22;20162;-57
2022/05/12 07:12:34;;;;;;;7.25;3.78;;;;;;;21.99;52.95;98832.25;6269997;22;20485;-57
2022/05/12 07:15:00;;;;;;;7.90;3.78;;;;;;;22.03;52.30;98832.75;6270366;22;20182;-57
2022/05/12 07:17:26;;;;;;;6.32;4.15;;;;;;;22.11;52.06;98833.56;6270041;22;20192;-57
2022/05/12 07:26:34;;;;;;;8.82;3.65;;;;;;;22.14;52.29;98838.50;6268704;22;20640;-57
2022/05/12 07:28:05;;;;;;;8.35;3.85;;;;;;;22.18;51.54;98836.34;6270307;22;20147;-57
2022/05/12 07:31:00;;;;;;;6.88;3.47;;;;;;;22.25;50.34;98837.34;6270221;22;20598;-57
2022/05/12 07:33:16;;;;;;;8.82;3.65;;;;;;;22.25;50.16;98839.97;6270105;22;20156;-55
2022/05/12 07:35:41;;;;;;;13.25;4.07;;;;;;;22.30;49.38;98833.19;6270228;22;20176;-56
2022/05/12 07:38:06;;;;;;;17.00;3.80;;;;;;;22.36;49.32;98832.53;6268374;22;20152;-55
2022/05/12 07:40:32;;;;;;;19.23;4.57;;;;;;;22.40;49.71;98830.38;6268623;22;20152;-58
2022/05/12 07:42:57;;;;;;;18.23;4.22;;;;;;;22.46;49.82;98829.72;6256002;22;20667;-58
2022/05/12 07:45:23;;;;;;;17.63;4.05;;;;;;;22.54;49.29;98832.31;6256142;22;20144;-55
2022/05/12 07:47:48;;;;;;;5.68;3.60;;;;;;;22.59;48.83;98833.47;6263117;22;20156;-56
2022/05/12 07:50:13;;;;;;;4.82;3.13;;;;;;;22.68;48.02;98835.06;6269793;22;20226;-55
2022/05/12 07:52:39;;;;;;;4.97;3.20;;;;;;;22.73;47.21;98826.66;6270103;22;20502;-56
2022/05/12 07:55:05;;;;;;;5.18;3.78;;;;;;;22.82;47.74;98830.91;6269915;22;20771;-55
2022/05/12 07:57:31;;;;;;;7.57;3.40;;;;;;;22.88;46.75;98830.22;6270570;22;20148;-55
2022/05/12 07:59:56;;;;;;;8.73;3.90;;;;;;;22.92;46.65;98823.59;6268216;22;20202;-56
2022/05/12 08:02:22;;;;;;;4.07;3.22;;;;;;;22.93;46.12;98830.53;6265756;22;20147;-56
2022/05/12 08:04:47;;;;;;;8.05;3.47;;;;;;;22.94;47.48;98829.53;6254574;22;20148;-55
2022/05/12 08:07:13;;;;;;;5.25;2.88;;;;;;;23.02;47.17;98818.94;6258715;22;20154;-55
2022/05/12 08:09:38;;;;;;;4.03;2.75;;;;;;;23.09;46.22;98825.16;6267744;22;20616;-57
2022/05/12 08:12:04;;;;;;;6.95;2.95;;;;;;;23.11;44.82;98824.00;6269924;22;20152;-57
2022/05/12 08:14:29;;;;;;;7.03;3.20;;;;;;;23.16;46.00;98824.31;6269591;22;20977;-57
2022/05/12 08:16:55;;;;;;;4.70;3.15;;;;;;;23.20;45.84;98827.47;6269401;22;20250;-57
2022/05/12 08:19:20;;;;;;;7.05;3.22;;;;;;;23.21;45.19;98829.09;6269770;22;20151;-57
2022/05/12 08:21:45;;;;;;;5.30;3.10;;;;;;;23.28;44.44;98830.03;6269779;22;20151;-57
2022/05/12 08:24:11;;;;;;;4.53;2.83;;;;;;;23.27;45.20;98823.94;6260802;22;20253;-57
2022/05/12 08:26:37;;;;;;;5.07;3.28;;;;;;;23.14;45.01;98830.75;6256569;22;20155;-57
2022/05/12 08:29:03;;;;;;;7.20;2.85;;;;;;;23.05;44.87;98822.06;6260167;22;20148;-57
2022/05/12 08:31:30;;;;;;;5.38;3.08;;;;;;;23.08;44.88;98818.25;6269721;22;20144;-57
2022/05/12 08:33:56;;;;;;;4.35;2.88;;;;;;;23.04;46.32;98815.16;6269936;22;20201;-57
2022/05/12 08:36:21;;;;;;;6.25;2.92;;;;;;;23.09;46.83;98806.69;6269482;22;20183;-57
2022/05/12 08:38:47;;;;;;;6.00;2.72;;;;;;;23.13;46.05;98814.09;6269586;22;20158;-57
2022/05/12 08:41:36;;;;;;;8.98;3.25;;;;;;;23.13;45.45;98813.28;6269402;22;20198;-57
2022/05/12 08:44:08;;;;;;;3.75;3.00;;;;;;;23.24;46.05;98820.84;6268606;22;20222;-57
2022/05/12 08:46:45;;;;;;;5.18;3.22;;;;;;;23.34;45.22;98810.84;6255538;22;20628;-57
2022/05/12 08:49:26;;;;;;;6.55;3.20;;;;;;;23.49;45.95;98815.19;6258068;22;20147;-57
2022/05/12 08:52:14;;;;;;;3.55;3.17;;;;;;;23.61;46.20;98810.34;6268202;22;20164;-57
2022/05/12 08:54:47;;;;;;;7.53;3.40;;;;;;;23.70;45.64;98810.09;6269470;22;20182;-58
2022/05/12 08:57:33;;;;;;;4.03;2.92;;;;;;;23.88;45.57;98804.53;6267837;22;20152;-57
2022/05/12 09:00:05;;;;;;;3.47;2.80;;;;;;;23.98;44.66;98812.00;6269279;22;20132;-57
2022/05/12 09:02:39;;;;;;;4.50;3.25;;;;;;;24.06;44.61;98807.66;6269478;22;20247;-58
2022/05/12 09:05:11;;;;;;;3.78;2.90;;;;;;;24.15;44.97;98802.91;6268489;22;20638;-57
2022/05/12 09:07:44;;;;;;;6.28;3.67;;;;;;;24.31;44.17;98808.03;6255478;22;20159;-58
2022/05/12 09:10:33;;;;;;;4.75;2.78;;;;;;;24.40;43.61;98809.63;6257701;22;20530;-57
2022/05/12 09:12:59;;;;;;;5.20;3.03;;;;;;;24.49;43.55;98800.56;6268363;22;20139;-57
2022/05/12 09:15:31;;;;;;;5.75;3.03;;;;;;;24.51;43.25;98809.16;6269171;22;20187;-58
2022/05/12 09:18:11;;;;;;;4.97;2.53;;;;;;;24.59;42.33;98803.78;6268923;22;20644;-58
2022/05/12 09:20:37;;;;;;;4.70;2.72;;;;;;;24.56;40.88;98801.47;6268576;22;20146;-55
2022/05/12 09:23:06;;;;;;;5.28;3.13;;;;;;;24.53;41.69;98801.84;6267440;22;20264;-58
2022/05/12 09:25:45;;;;;;;9.85;3.03;;;;;;;24.62;41.53;98806.06;6269275;22;20146;-56
2022/05/12 09:28:33;;;;;;;5.75;3.05;;;;;;;24.74;40.26;98809.06;6255746;22;20352;-56
2022/05/12 09:31:17;;;;;;;3.70;2.85;;;;;;;24.76;40.72;98807.06;6257103;22;20143;-56
2022/05/12 09:33:46;;;;;;;2.95;2.75;;;;;;;24.92;40.59;98802.38;6266527;22;20150;-56
2022/05/12 09:36:19;;;;;;;6.22;2.72;;;;;;;25.02;39.57;98802.88;6269521;22;20180;-57
2022/05/12 09:38:46;;;;;;;4.88;2.70;;;;;;;25.10;39.11;98813.41;6269076;22;20163;-56
2022/05/12 09:41:22;;;;;;;3.90;2.78;;;;;;;25.17;39.60;98794.91;6269138;22;20171;-56
2022/05/12 09:43:53;;;;;;;7.07;2.75;;;;;;;25.34;39.16;98797.19;6269063;22;20177;-56
2022/05/12 09:46:31;;;;;;;3.63;2.53;;;;;;;25.31;37.69;98804.69;6269203;22;20144;-56
2022/05/12 09:49:20;;;;;;;7.30;2.70;;;;;;;24.91;37.19;98797.28;6259325;22;20605;-56
2022/05/12 09:51:46;;;;;;;3.80;2.65;;;;;;;25.04;38.27;98795.59;6257089;22;20171;-56
2022/05/12 09:54:15;;;;;;;4.00;2.42;;;;;;;25.05;37.70;98785.81;6265883;22;20578;-56
2022/05/12 09:56:44;;;;;;;7.20;2.67;;;;;;;25.11;37.84;98788.53;6271130;22;20144;-56
2022/05/12 09:59:15;;;;;;;10.23;4.22;;;;;;;25.26;37.43;98788.53;6271316;22;20160;-56
2022/05/12 10:02:03;;;;;;;3.42;3.03;;;;;;;25.44;37.79;98781.78;6271175;22;20132;-56
2022/05/12 10:10:17;;;;;;;7.78;2.63;;;;;;;26.00;36.22;98777.41;6257945;22;20652;-56
2022/05/12 10:13:08;;;;;;;2.28;2.13;;;;;;;26.13;35.88;98780.94;6258791;22;20167;-56
2022/05/12 10:15:39;;;;;;;4.25;3.03;;;;;;;26.27;35.90;98779.19;6266769;22;20179;-56
2022/05/12 10:18:16;;;;;;;9.13;3.03;;;;;;;26.29;35.11;98772.69;6271428;22;20171;-56
2022/05/12 10:20:46;;;;;;;3.45;2.40;;;;;;;26.37;34.74;98775.16;6271048;22;20132;-56
2022/05/12 10:23:47;;;;;;;2.72;2.47;;;;;;;26.45;34.50;98771.53;6271030;22;20175;-56
2022/05/12 10:26:45;;;;;;;3.08;2.72;;;;;;;26.49;34.71;98768.31;6270224;22;20380;-56
2022/05/12 10:29:47;;;;;;;3.80;2.70;;;;;;;26.64;34.92;98761.03;6235757;22;20182;-57
2022/05/12 10:32:34;;;;;;;2.90;2.33;;;;;;;26.82;34.72;98763.97;6257275;22;20427;-56
2022/05/12 10:35:24;;;;;;;3.28;2.55;;;;;;;26.96;33.77;98757.72;6259926;22;20168;-56
2022/05/12 10:38:03;;;;;;;8.55;3.00;;;;;;;27.07;32.78;98766.91;6270720;22;21035;-57
2022/05/12 10:40:41;;;;;;;11.25;2.65;;;;;;;27.24;32.19;98763.72;6270500;22;20140;-56
2022/05/12 10:43:10;;;;;;;5.53;2.15;;;;;;;27.44;32.06;98766.41;6270694;22;20159;-57
2022/05/12 10:46:01;;;;;;;6.45;2.35;;;;;;;27.56;31.78;98762.94;6271007;22;20201;-56
2022/05/12 10:48:35;;;;;;;2.70;2.50;;;;;;;27.77;31.65;98754.81;6270619;22;20136;-57
2022/05/12 10:51:19;;;;;;;2.60;2.40;;;;;;;27.93;31.38;98749.03;6265518;22;20211;-57
2022/05/12 10:54:03;;;;;;;3.35;2.13;;;;;;;28.08;30.38;98746.16;6257580;22;20144;-57
2022/05/12 10:56:35;;;;;;;2.25;2.05;;;;;;;28.12;30.61;98742.06;6259532;22;20472;-57
2022/05/12 10:59:15;;;;;;;2.50;2.30;;;;;;;28.17;31.12;98745.72;6269770;22;20173;-57
2022/05/12 11:01:47;;;;;;;4.90;2.50;;;;;;;28.39;30.96;98749.00;6270571;22;20237;-57
2022/05/12 11:04:20;;;;;;;4.53;2.42;;;;;;;28.54;30.01;98746.88;6270511;22;20142;-57
2022/05/12 11:07:20;;;;;;;4.13;2.38;;;;;;;28.68;29.76;98754.63;6270381;22;20194;-57
2022/05/12 11:09:50;;;;;;;2.55;2.35;;;;;;;28.83;29.18;98752.50;6257176;22;20178;-57
2022/05/12 11:12:26;;;;;;;3.63;2.03;;;;;;;28.96;28.99;98743.66;6264120;22;20505;-57
2022/05/12 11:15:04;;;;;;;2.88;2.13;;;;;;;29.06;29.31;98742.19;6257205;22;20582;-57
2022/05/12 11:17:55;;;;;;;2.65;2.45;;;;;;;28.92;28.70;98743.22;6260949;22;20183;-55
2022/05/12 11:20:29;;;;;;;2.60;2.22;;;;;;;28.99;28.96;98746.72;6270429;22;20132;-56
2022/05/12 11:23:07;;;;;;;4.72;2.47;;;;;;;29.17;28.94;98738.00;6269131;22;20144;-56
2022/05/12 11:26:18;;;;;;;2.88;2.55;;;;;;;29.25;28.95;98743.91;6270457;22;20139;-56
2022/05/12 11:31:40;;;;;;;4.38;2.70;;;;;;;29.40;27.82;98732.91;6269328;22;20504;-56
2022/05/12 11:34:09;;;;;;;2.55;2.10;;;;;;;29.25;27.01;98725.22;6258969;22;20151;-57
2022/05/12 11:36:39;;;;;;;2.95;2.30;;;;;;;29.40;27.58;98727.59;6257712;22;20152;-57
2022/05/12 11:39:25;;;;;;;6.53;2.00;;;;;;;29.45;26.74;98725.88;6263277;22;20151;-57
2022/05/12 11:42:17;;;;;;;3.80;2.15;;;;;;;29.62;26.88;98721.69;6270252;22;20536;-57
2022/05/12 11:44:54;;;;;;;3.08;2.05;;;;;;;29.77;25.84;98716.84;6270202;22;20129;-57
2022/05/12 11:47:47;;;;;;;3.10;2.00;;;;;;;29.90;26.50;98713.25;6268436;22;20144;-57
2022/05/12 11:50:31;;;;;;;4.65;2.13;;;;;;;29.91;25.71;98709.53;6270312;22;20560;-57
2022/05/12 11:53:04;;;;;;;3.60;1.73;;;;;;;30.00;25.54;98708.19;6270539;22;20152;-56
2022/05/12 11:55:55;;;;;;;4.43;2.42;;;;;;;29.99;27.21;98704.72;6255499;22;20657;-56
2022/05/12 11:58:41;;;;;;;4.78;3.00;;;;;;;30.12;27.53;98695.78;6258334;22;20171;-56
2022/05/12 12:01:22;;;;;;;4.03;2.30;;;;;;;30.18;27.03;98697.56;6267265;22;20139;-57
2022/05/12 12:03:55;;;;;;;3.63;2.60;;;;;;;29.95;26.77;98703.53;6269110;22;20171;-57
2022/05/12 12:06:38;;;;;;;3.85;2.85;;;;;;;29.58;27.48;98701.00;6269935;22;20471;-57